Aérodrome :
LOGIN :

S'inscrire | Disclaimer

   EN    FR    IT 

 










Légende :    VFR   VFR Marginal   IFR   IFR Intensif   IFR Très Intensif
Visi : 
Plafond : 
>= 8 km
>= 3000ft
5 à 8 km
1000 à 3000 ft
1500m à 5 km
500 à 1000 ft
800 à 1500m
200 à 500 ft
< 800m
< 200 ft
Symboles :   Orages  Brouillard  Fortes neiges  Fortes précipitations  Vent > 20 kt
SIGMETs :   Divers  Orages  Givrage  Turbulence  Onde Orograph.  Cendres Volcan.






- Altitude de l'aérodrome : 512 ft
- Code IATA : URO


LFOP - Rouen Vallée de Seine

DERNIER METAR :
  • 041430Z AUTO VRB01KT 9999 FEW034 BKN076 OVC096 20/12 Q1012 TEMPO SHRA BKN025TCU

METARs EXPIRÉS :
  • 041400Z AUTO VRB02KT 9999 FEW037 OVC076 20/12 Q1013 TEMPO SHRA BKN025TCU
  • 041330Z AUTO VRB03KT 9999 BKN032 BKN038 OVC078 20/12 Q1013 TEMPO SHRA BKN025TCU
  • 041300Z AUTO 19005KT 140V230 CAVOK 20/12 Q1013 TEMPO SHRA BKN025TCU
  • 041230Z AUTO 18005KT 130V230 9999 FEW027 BKN082 BKN110 20/11 Q1013 TEMPO SHRA BKN025TCU
  • 041200Z AUTO 20005KT 170V260 9999 SCT026 BKN032 BKN054 19/13 Q1013 NOSIG

TAF TAF LFOP
Valide du 04 à 12h jusqu'au 05 à 12h UTC


041100Z 0412/0512 18003KT 9999 BKN040
TEMPO 0414/0417 SHRA BKN025TCU
BECMG 0421/0424 1500 BR
TEMPO 0503/0506 0200 FG VV///
BECMG 0506/0509 21013KT 9999 NSW
ATIS : +33 2 35 80 80 34
Météo : +33 2 32 86 52 80



MET'MAP, la Météo Aéronautique d'un coup d'oeil ! - Copyright ORBIFLY Décembre 2007 - Disclaimer

ORBIFLY MET'MAP TEAM :

Programmation & Développement : Alexandra Zaïnal
Sur une idée originale de : Baudouin d'Aumeries
Assistance à la programmation : Marc-Olivier Méhu
Soutien technique & logistique : Manuel Goepfert

Contact : metmap@orbifly.com




SOURCES & CREDITS :

   NOAA